Time;durP1;ratioP1;P1;durP2;ratioP2;P2;SDS_P1;SDS_P2;PMS_P1;PMS_P2;Temp;Humidity;BMP_temperature;BMP_pressure;BME280_temperature;BME280_humidity;BME280_pressure;Samples;Min_cycle;Max_cycle;Signal;HPM_P1;HPM_P2
2021/05/10 00:01:23;;;;;;;8.65;1.50;;;;;;;11.48;70.35;98215.69;5049866;28;20048;-46
2021/05/10 00:03:49;;;;;;;14.30;2.22;;;;;;;11.47;70.30;98214.91;5051088;28;20490;-44
2021/05/10 00:06:16;;;;;;;8.40;1.70;;;;;;;11.46;70.37;98210.53;5051081;28;20650;-44
2021/05/10 00:08:43;;;;;;;9.65;2.03;;;;;;;11.45;70.19;98214.53;5031783;28;20048;-46
2021/05/10 00:11:10;;;;;;;10.48;1.88;;;;;;;11.44;70.16;98221.25;5051189;28;20084;-45
2021/05/10 00:13:41;;;;;;;14.05;1.85;;;;;;;11.47;70.25;98220.44;5049609;28;20053;-47
2021/05/10 00:16:07;;;;;;;10.25;2.30;;;;;;;11.48;70.11;98216.47;5050996;28;20509;-45
2021/05/10 00:18:34;;;;;;;10.73;1.73;;;;;;;11.44;70.24;98218.50;5049979;28;20037;-47
2021/05/10 00:21:00;;;;;;;7.82;2.20;;;;;;;11.45;70.35;98220.06;5053157;28;20072;-44
2021/05/10 00:23:26;;;;;;;9.85;2.13;;;;;;;11.44;70.51;98210.19;5052817;28;20056;-46
2021/05/10 00:25:53;;;;;;;14.90;3.90;;;;;;;11.41;70.72;98216.53;5049943;28;20449;-45
2021/05/10 00:28:19;;;;;;;9.65;2.40;;;;;;;11.38;70.99;98206.31;5050206;28;20049;-46
2021/05/10 00:30:45;;;;;;;13.68;2.00;;;;;;;11.41;70.96;98210.22;5050548;28;20036;-47
2021/05/10 00:33:12;;;;;;;8.25;1.75;;;;;;;11.40;71.19;98209.44;5050118;28;20091;-46
2021/05/10 00:35:39;;;;;;;11.07;2.00;;;;;;;11.41;71.18;98211.00;5048948;28;20049;-46
2021/05/10 00:38:05;;;;;;;20.27;5.20;;;;;;;11.45;71.13;98200.69;5053983;28;20414;-45
2021/05/10 00:40:33;;;;;;;16.80;2.38;;;;;;;11.47;71.23;98203.81;5049729;28;20044;-46
2021/05/10 00:43:01;;;;;;;12.43;2.33;;;;;;;11.45;71.30;98197.91;5048208;28;20456;-45
2021/05/10 00:45:28;;;;;;;8.32;2.25;;;;;;;11.44;71.23;98212.94;5049497;28;20083;-52
2021/05/10 00:47:55;;;;;;;7.93;2.08;;;;;;;11.45;71.33;98210.97;5049795;28;20545;-53
2021/05/10 00:50:22;;;;;;;15.65;1.75;;;;;;;11.44;71.47;98209.38;5049957;28;20076;-47
2021/05/10 00:52:49;;;;;;;11.70;3.83;;;;;;;11.36;71.84;98219.75;5049378;28;20095;-46
2021/05/10 00:55:16;;;;;;;9.82;2.50;;;;;;;11.38;71.87;98216.59;5049830;28;20088;-45
2021/05/10 00:57:49;;;;;;;8.98;1.85;;;;;;;11.35;72.31;98212.66;5050035;28;20095;-49
2021/05/10 01:00:16;;;;;;;10.77;2.15;;;;;;;11.33;72.03;98203.19;5049990;28;20505;-48
2021/05/10 01:02:43;;;;;;;10.50;2.92;;;;;;;11.32;72.15;98205.19;5048309;28;20110;-49
2021/05/10 01:05:11;;;;;;;13.70;1.75;;;;;;;11.37;72.12;98215.00;5051668;28;20048;-46
2021/05/10 01:07:37;;;;;;;7.65;2.47;;;;;;;11.34;72.24;98211.09;5053274;28;20110;-46
2021/05/10 01:10:17;;;;;;;11.95;2.67;;;;;;;11.33;72.52;98215.03;5052710;28;20072;-48
2021/05/10 01:12:43;;;;;;;13.77;3.60;;;;;;;11.36;72.29;98207.88;5062080;28;20445;-48
2021/05/10 01:15:13;;;;;;;7.90;2.20;;;;;;;11.35;72.44;98207.13;5049181;28;20064;-46
2021/05/10 01:17:40;;;;;;;5.20;1.67;;;;;;;11.30;72.63;98207.56;5034781;28;20444;-49
2021/05/10 01:20:09;;;;;;;13.50;2.13;;;;;;;11.25;73.05;98208.00;5052798;28;20063;-48
2021/05/10 01:22:42;;;;;;;5.53;1.17;;;;;;;11.22;73.03;98196.97;5051706;28;20053;-48
2021/05/10 01:25:12;;;;;;;9.07;1.50;;;;;;;11.13;73.15;98194.69;5052019;28;20095;-45
2021/05/10 01:27:42;;;;;;;9.90;1.85;;;;;;;11.05;73.74;98197.91;5015920;28;20041;-48
2021/05/10 01:30:16;;;;;;;10.52;1.85;;;;;;;11.01;73.80;98184.13;5047658;28;20457;-45
2021/05/10 01:32:42;;;;;;;4.73;1.17;;;;;;;11.00;73.71;98183.34;5052673;28;20083;-48
2021/05/10 01:35:10;;;;;;;6.22;1.48;;;;;;;11.00;73.78;98177.00;5053016;28;20077;-46
2021/05/10 01:37:36;;;;;;;8.73;1.50;;;;;;;11.00;73.82;98174.25;5051992;28;20081;-45
2021/05/10 01:40:08;;;;;;;7.03;1.30;;;;;;;10.98;74.40;98177.44;5052742;28;20057;-50
2021/05/10 01:42:35;;;;;;;10.95;1.25;;;;;;;10.95;74.36;98177.47;5033504;28;20055;-47
2021/05/10 01:45:02;;;;;;;8.48;1.85;;;;;;;10.89;74.48;98179.88;5052632;28;20044;-46
2021/05/10 01:47:29;;;;;;;4.43;0.93;;;;;;;10.86;74.81;98185.44;5052736;28;20041;-48
2021/05/10 01:49:55;;;;;;;4.85;1.10;;;;;;;10.80;74.92;98176.03;5052110;28;20041;-48
2021/05/10 01:52:22;;;;;;;3.83;1.10;;;;;;;10.77;75.03;98187.91;5051996;28;20041;-50
2021/05/10 01:54:51;;;;;;;7.28;1.08;;;;;;;10.71;75.48;98176.47;5051243;28;20052;-45
2021/05/10 01:57:20;;;;;;;6.53;1.50;;;;;;;10.69;75.40;98189.16;5052934;28;20498;-49
2021/05/10 01:59:47;;;;;;;8.13;1.42;;;;;;;10.65;75.66;98191.94;5050169;28;20109;-48
2021/05/10 02:02:14;;;;;;;5.65;1.45;;;;;;;10.63;75.70;98185.25;5048147;28;20536;-45
2021/05/10 02:05:09;;;;;;;7.55;1.08;;;;;;;10.58;76.54;98191.22;5064837;28;20056;-50
2021/05/10 02:07:37;;;;;;;5.22;1.15;;;;;;;10.61;75.80;98193.97;5051706;28;20044;-47
2021/05/10 02:10:06;;;;;;;6.35;1.17;;;;;;;10.61;75.82;98201.47;5051723;28;20051;-52
2021/05/10 02:12:32;;;;;;;10.43;1.50;;;;;;;10.62;76.24;98197.50;5051953;28;20142;-45
2021/05/10 02:14:59;;;;;;;4.82;1.60;;;;;;;10.63;76.37;98193.53;5052072;28;20080;-47
2021/05/10 02:17:25;;;;;;;6.25;1.70;;;;;;;10.60;77.04;98194.34;5051965;28;20083;-47
2021/05/10 02:19:51;;;;;;;12.15;2.15;;;;;;;10.60;77.08;98189.63;5052798;28;20135;-46
2021/05/10 02:22:18;;;;;;;5.00;0.90;;;;;;;10.61;77.01;98195.94;5052118;28;20048;-46
2021/05/10 02:24:44;;;;;;;7.65;2.13;;;;;;;10.65;76.92;98191.16;5051619;28;20422;-47
2021/05/10 02:27:10;;;;;;;8.40;1.58;;;;;;;10.71;76.57;98195.06;5051915;28;20056;-46
2021/05/10 02:29:36;;;;;;;3.60;0.88;;;;;;;10.75;76.44;98193.84;5052028;28;20045;-51
2021/05/10 02:32:03;;;;;;;8.07;1.10;;;;;;;10.76;76.18;98187.13;5051512;28;20087;-49
2021/05/10 02:34:29;;;;;;;7.05;1.55;;;;;;;10.75;76.30;98193.84;5032522;28;20062;-49
2021/05/10 02:36:55;;;;;;;7.03;1.70;;;;;;;10.74;76.36;98197.81;5041142;28;20124;-51
2021/05/10 02:39:22;;;;;;;6.20;1.35;;;;;;;10.72;76.09;98188.34;5060546;28;20057;-49
2021/05/10 02:41:48;;;;;;;6.35;2.13;;;;;;;10.69;76.23;98181.66;5050375;28;20054;-45
2021/05/10 02:44:15;;;;;;;8.13;2.03;;;;;;;10.66;76.29;98176.13;5051595;28;20087;-48
2021/05/10 02:46:41;;;;;;;11.20;1.77;;;;;;;10.63;76.19;98172.19;5051950;28;20103;-48
2021/05/10 02:49:08;;;;;;;8.88;1.80;;;;;;;10.61;76.30;98173.81;5052233;28;20060;-50
2021/05/10 02:51:34;;;;;;;7.75;1.85;;;;;;;10.55;76.56;98172.66;5051900;28;20442;-48
2021/05/10 02:54:00;;;;;;;14.32;2.58;;;;;;;10.54;76.38;98168.34;5051475;28;20118;-47
2021/05/10 02:56:27;;;;;;;9.35;2.35;;;;;;;10.51;76.63;98174.69;5052015;28;20409;-48
2021/05/10 02:58:55;;;;;;;9.48;2.00;;;;;;;10.50;76.46;98173.09;5050881;28;20098;-47
2021/05/10 03:01:22;;;;;;;15.00;3.65;;;;;;;10.50;76.63;98167.56;5033562;28;20126;-46
2021/05/10 03:03:51;;;;;;;20.55;3.83;;;;;;;10.50;76.88;98167.56;5050564;28;20068;-49
2021/05/10 03:06:17;;;;;;;28.98;3.88;;;;;;;10.52;76.84;98167.94;5051336;28;20482;-48
2021/05/10 03:08:43;;;;;;;8.00;1.75;;;;;;;10.55;76.56;98170.69;5051151;28;20080;-50
2021/05/10 03:11:10;;;;;;;20.25;4.65;;;;;;;10.57;76.44;98173.81;5056034;28;20123;-48
2021/05/10 03:13:36;;;;;;;9.02;1.30;;;;;;;10.58;76.61;98169.09;5040906;28;20056;-45
2021/05/10 03:16:02;;;;;;;8.68;1.42;;;;;;;10.56;76.59;98165.94;5051616;28;20092;-49
2021/05/10 03:18:29;;;;;;;12.27;2.03;;;;;;;10.55;76.62;98162.38;5050236;28;20055;-46
2021/05/10 03:20:55;;;;;;;6.18;1.38;;;;;;;10.55;76.83;98170.69;5054719;28;20032;-46
2021/05/10 03:23:22;;;;;;;9.55;1.67;;;;;;;10.54;76.83;98169.09;5057326;28;20490;-46
2021/05/10 03:25:48;;;;;;;12.80;1.83;;;;;;;10.57;76.85;98168.28;5049663;28;20041;-49
2021/05/10 03:28:14;;;;;;;9.65;2.10;;;;;;;10.63;76.63;98172.19;5034336;28;20068;-45
2021/05/10 03:30:41;;;;;;;9.75;1.40;;;;;;;10.68;76.62;98168.19;5051114;28;20128;-47
2021/05/10 03:33:08;;;;;;;4.45;1.00;;;;;;;10.69;76.74;98169.78;5050902;28;20524;-49
2021/05/10 03:35:34;;;;;;;5.93;1.90;;;;;;;10.70;76.52;98163.03;5051191;28;20040;-45
2021/05/10 03:38:00;;;;;;;9.48;1.80;;;;;;;10.72;76.56;98171.75;5051476;28;20128;-46
2021/05/10 03:40:26;;;;;;;8.88;1.88;;;;;;;10.72;76.78;98168.97;5050465;28;20549;-50
2021/05/10 03:42:53;;;;;;;9.00;2.55;;;;;;;10.71;76.85;98170.16;5036991;28;20044;-49
2021/05/10 03:45:19;;;;;;;13.60;1.70;;;;;;;10.71;76.89;98172.94;5039645;28;20041;-46
2021/05/10 03:47:45;;;;;;;7.82;1.38;;;;;;;10.71;76.57;98168.19;5064709;28;20069;-46
2021/05/10 03:50:17;;;;;;;5.30;1.70;;;;;;;10.71;76.93;98173.72;5051536;28;20618;-49
2021/05/10 03:52:48;;;;;;;7.38;1.73;;;;;;;10.72;76.94;98174.50;5049668;28;20158;-48
2021/05/10 03:55:17;;;;;;;6.60;1.23;;;;;;;10.71;77.13;98172.94;5050512;28;20068;-46
2021/05/10 03:57:44;;;;;;;10.13;2.72;;;;;;;10.69;77.11;98169.78;5051068;28;20124;-45
2021/05/10 04:00:12;;;;;;;10.20;1.67;;;;;;;10.72;77.12;98166.22;5050803;28;20394;-48
2021/05/10 04:02:39;;;;;;;10.45;1.10;;;;;;;10.70;77.27;98166.59;5050933;28;20128;-48
2021/05/10 04:15:35;;;;;;;12.05;2.83;;;;;;;10.70;77.24;98168.56;5050083;28;20107;-47
2021/05/10 04:18:03;;;;;;;3.85;0.80;;;;;;;10.72;77.27;98177.28;5050595;28;20106;-49
2021/05/10 04:20:30;;;;;;;6.15;1.52;;;;;;;10.72;77.39;98174.50;5050988;28;20037;-52
2021/05/10 04:22:56;;;;;;;11.20;2.78;;;;;;;10.72;77.69;98189.09;5050568;28;20111;-46
2021/05/10 04:25:23;;;;;;;6.47;1.30;;;;;;;10.68;77.66;98179.28;5049691;28;20048;-48
2021/05/10 04:27:51;;;;;;;14.52;2.60;;;;;;;10.65;77.89;98174.53;5050893;28;20461;-47
2021/05/10 04:30:18;;;;;;;10.82;1.30;;;;;;;10.61;78.13;98169.06;5049946;28;20099;-46
2021/05/10 04:32:45;;;;;;;12.20;1.80;;;;;;;10.58;78.38;98169.09;5050790;28;20041;-47
2021/05/10 04:35:12;;;;;;;12.63;2.10;;;;;;;10.56;78.56;98177.00;5050648;28;20057;-46
2021/05/10 04:37:40;;;;;;;7.25;1.60;;;;;;;10.52;78.74;98174.25;5065689;28;20569;-46
2021/05/10 04:40:08;;;;;;;10.93;1.70;;;;;;;10.47;79.40;98180.22;5054187;28;20057;-46
2021/05/10 04:42:34;;;;;;;5.65;1.33;;;;;;;10.47;79.19;98180.22;5036791;28;20486;-46
2021/05/10 04:45:00;;;;;;;10.73;1.63;;;;;;;10.51;79.25;98180.22;5054076;28;20064;-49
2021/05/10 04:47:36;;;;;;;7.85;1.27;;;;;;;10.50;79.37;98182.19;5054507;28;20445;-48
2021/05/10 04:50:09;;;;;;;6.07;1.17;;;;;;;10.50;79.68;98190.50;5049830;28;20120;-45
2021/05/10 04:52:37;;;;;;;8.25;2.15;;;;;;;10.49;79.56;98183.38;5054411;28;20055;-46
2021/05/10 04:55:09;;;;;;;6.53;0.98;;;;;;;10.51;79.79;98192.03;5045855;28;20422;-46
2021/05/10 04:57:35;;;;;;;4.20;1.45;;;;;;;10.55;79.74;98186.50;5054052;28;20562;-46
2021/05/10 05:00:03;;;;;;;7.32;1.20;;;;;;;10.55;79.98;98180.97;5053906;28;20060;-49
2021/05/10 05:02:29;;;;;;;10.23;1.20;;;;;;;10.54;79.93;98188.47;5053218;28;20462;-53
2021/05/10 05:04:57;;;;;;;4.93;0.80;;;;;;;10.55;79.66;98195.59;5053582;28;20402;-45
2021/05/10 05:07:24;;;;;;;7.45;1.77;;;;;;;10.55;80.24;98203.09;5054503;28;20099;-47
2021/05/10 05:09:50;;;;;;;5.97;2.10;;;;;;;10.57;80.13;98200.69;5054091;28;20051;-48
2021/05/10 05:12:16;;;;;;;1.48;0.60;;;;;;;10.55;80.45;98192.03;5053910;28;20084;-46
2021/05/10 05:14:43;;;;;;;4.53;1.65;;;;;;;10.54;80.31;98190.47;5031331;28;20418;-47
2021/05/10 05:17:09;;;;;;;3.88;0.68;;;;;;;10.53;80.29;98191.66;5033710;28;20056;-45
2021/05/10 05:19:36;;;;;;;3.83;0.57;;;;;;;10.53;80.11;98188.88;5033426;28;20487;-46
2021/05/10 05:22:02;;;;;;;0.82;0.30;;;;;;;10.57;80.03;98192.41;5035329;28;20123;-46
2021/05/10 05:24:29;;;;;;;4.50;0.60;;;;;;;10.56;79.92;98193.59;5031789;28;20119;-45
2021/05/10 05:26:55;;;;;;;7.22;0.82;;;;;;;10.56;80.05;98185.31;5032906;28;20060;-45
2021/05/10 05:29:22;;;;;;;2.28;0.50;;;;;;;10.54;80.01;98187.69;5033171;28;20124;-45
2021/05/10 05:31:54;;;;;;;3.05;0.60;;;;;;;10.53;80.27;98188.88;5033503;28;20152;-45
2021/05/10 05:34:21;;;;;;;4.30;0.73;;;;;;;10.54;80.00;98190.47;5032339;28;20069;-47
2021/05/10 05:36:47;;;;;;;3.75;0.90;;;;;;;10.55;79.98;98187.28;5012760;28;20085;-47
2021/05/10 05:39:15;;;;;;;3.72;0.70;;;;;;;10.56;79.84;98193.59;5025653;28;20049;-46
2021/05/10 05:41:41;;;;;;;4.95;1.23;;;;;;;10.60;79.68;98188.81;5033682;28;20079;-45
2021/05/10 05:44:08;;;;;;;7.85;0.80;;;;;;;10.63;79.47;98197.09;5033348;28;20069;-45
2021/05/10 05:46:41;;;;;;;4.65;1.10;;;;;;;10.68;79.33;98193.91;5033624;28;20087;-48
2021/05/10 05:49:08;;;;;;;7.72;1.40;;;;;;;10.74;79.16;98202.56;5033072;28;20041;-46
2021/05/10 05:51:35;;;;;;;6.43;2.47;;;;;;;10.79;78.85;98207.66;5032336;28;20045;-46
2021/05/10 05:54:02;;;;;;;7.95;1.17;;;;;;;10.81;78.77;98217.13;5031392;28;20085;-46
2021/05/10 05:56:30;;;;;;;7.38;1.10;;;;;;;10.92;78.78;98217.03;5031634;28;20065;-45
2021/05/10 05:58:57;;;;;;;8.98;1.10;;;;;;;11.02;78.70;98221.69;5033183;28;20503;-49
2021/05/10 06:01:25;;;;;;;5.28;0.93;;;;;;;11.07;78.55;98223.25;5032588;28;20117;-47
2021/05/10 06:03:53;;;;;;;3.75;0.80;;;;;;;11.11;78.50;98222.00;5027784;28;20116;-47
2021/05/10 06:06:20;;;;;;;5.88;1.00;;;;;;;11.12;78.42;98231.88;5032728;28;20084;-48
2021/05/10 06:08:49;;;;;;;10.38;2.15;;;;;;;11.12;78.41;98231.88;5032585;28;20052;-46
2021/05/10 06:11:15;;;;;;;6.72;0.73;;;;;;;11.11;78.48;98230.31;5032343;28;20038;-45
2021/05/10 06:13:42;;;;;;;3.45;0.50;;;;;;;11.10;78.42;98225.94;5032432;28;20063;-46
2021/05/10 06:16:09;;;;;;;12.35;3.47;;;;;;;11.10;78.31;98234.25;5048543;28;20083;-46
2021/05/10 06:18:36;;;;;;;11.18;1.85;;;;;;;11.12;78.61;98225.56;5039503;28;20078;-46
2021/05/10 06:21:05;;;;;;;6.47;0.93;;;;;;;11.12;78.62;98229.09;5052009;28;20041;-46
2021/05/10 06:23:32;;;;;;;5.57;1.35;;;;;;;11.11;78.58;98224.78;5052636;28;20059;-48
2021/05/10 06:25:58;;;;;;;8.13;2.08;;;;;;;11.13;78.57;98227.13;5052062;28;20544;-45
2021/05/10 06:28:25;;;;;;;7.47;1.55;;;;;;;11.19;78.47;98219.94;5052146;28;20387;-48
2021/05/10 06:30:51;;;;;;;10.02;1.50;;;;;;;11.22;78.37;98227.44;5051819;28;20465;-45
2021/05/10 06:33:17;;;;;;;4.18;1.50;;;;;;;11.31;78.19;98225.75;5051768;28;20079;-48
2021/05/10 06:35:45;;;;;;;6.05;1.30;;;;;;;11.45;78.27;98228.38;5051623;28;20068;-47
2021/05/10 06:38:12;;;;;;;4.97;1.67;;;;;;;11.68;78.32;98229.69;5052033;28;20064;-45
2021/05/10 06:40:39;;;;;;;10.35;1.92;;;;;;;11.91;78.01;98227.09;5034344;28;20045;-46
2021/05/10 06:43:05;;;;;;;8.60;1.50;;;;;;;12.06;78.00;98222.94;5051631;28;20051;-50
2021/05/10 06:45:31;;;;;;;6.25;1.70;;;;;;;12.17;78.03;98212.50;5051815;28;20052;-46
2021/05/10 06:47:58;;;;;;;12.32;3.42;;;;;;;12.28;77.45;98220.66;5051726;28;20040;-46
2021/05/10 06:50:24;;;;;;;6.40;1.20;;;;;;;12.26;77.28;98215.53;5051137;28;20037;-46
2021/05/10 06:52:53;;;;;;;8.00;1.77;;;;;;;12.25;76.99;98221.50;5036982;28;20052;-48
2021/05/10 06:55:21;;;;;;;7.20;1.33;;;;;;;12.17;76.68;98212.50;5051915;28;20041;-46
2021/05/10 06:57:47;;;;;;;10.45;2.03;;;;;;;12.04;76.43;98209.50;5052290;28;20049;-45
2021/05/10 07:00:14;;;;;;;5.25;1.63;;;;;;;11.98;76.48;98221.47;5051863;28;20085;-45
2021/05/10 07:02:41;;;;;;;9.70;2.20;;;;;;;11.91;76.05;98227.09;5044845;28;20095;-49
2021/05/10 07:05:08;;;;;;;4.13;0.75;;;;;;;11.87;76.03;98220.81;5032036;28;20042;-46
2021/05/10 07:07:34;;;;;;;4.55;0.77;;;;;;;11.94;75.56;98221.50;5031907;28;20049;-46
2021/05/10 07:10:00;;;;;;;4.07;0.93;;;;;;;12.05;75.35;98218.59;5044542;28;20053;-50
2021/05/10 07:12:28;;;;;;;4.07;0.60;;;;;;;12.14;74.75;98227.19;5031366;28;20045;-50
2021/05/10 07:14:55;;;;;;;3.47;0.75;;;;;;;12.27;74.55;98222.66;5029052;28;20441;-49
2021/05/10 07:17:21;;;;;;;3.97;1.13;;;;;;;12.45;74.05;98228.72;5049866;28;20490;-46
2021/05/10 07:19:48;;;;;;;6.72;2.13;;;;;;;12.55;73.54;98221.47;5038572;28;20091;-47
2021/05/10 07:22:14;;;;;;;6.93;1.10;;;;;;;12.63;72.79;98223.69;5045633;28;20128;-46
2021/05/10 07:24:41;;;;;;;4.88;0.73;;;;;;;12.66;72.63;98222.06;5049286;28;20045;-49
2021/05/10 07:27:07;;;;;;;8.55;1.40;;;;;;;12.67;72.44;98218.09;5048989;28;20502;-48
2021/05/10 07:29:35;;;;;;;6.78;0.90;;;;;;;12.61;71.85;98219.78;5032021;28;20041;-48
2021/05/10 07:32:01;;;;;;;2.88;1.00;;;;;;;12.50;71.75;98225.50;5049214;28;20132;-46
2021/05/10 07:34:29;;;;;;;3.17;0.73;;;;;;;12.40;71.73;98228.41;5048774;28;20068;-46
2021/05/10 07:36:56;;;;;;;4.78;0.77;;;;;;;12.29;72.00;98233.31;5049762;28;20037;-45
2021/05/10 07:39:23;;;;;;;4.93;1.08;;;;;;;12.20;72.29;98234.63;5049352;28;20045;-47
2021/05/10 07:41:49;;;;;;;1.75;0.73;;;;;;;12.09;73.04;98238.75;5048160;28;20052;-44
2021/05/10 07:44:15;;;;;;;2.10;0.40;;;;;;;12.05;73.51;98230.47;5048527;28;20120;-47
2021/05/10 07:46:41;;;;;;;0.47;0.40;;;;;;;12.21;74.21;98229.88;5049350;28;20049;-48
2021/05/10 07:49:08;;;;;;;2.78;0.47;;;;;;;12.38;74.58;98230.81;5048788;28;20037;-46
2021/05/10 07:51:34;;;;;;;1.35;0.32;;;;;;;12.56;75.87;98234.91;5031452;28;20557;-47
2021/05/10 07:54:00;;;;;;;3.70;1.10;;;;;;;12.79;77.50;98226.63;5049215;28;20075;-45
2021/05/10 07:56:27;;;;;;;3.30;0.50;;;;;;;13.04;78.08;98237.34;5047681;28;20044;-47
2021/05/10 07:58:55;;;;;;;4.15;0.57;;;;;;;13.36;79.40;98225.69;5048499;28;20455;-49
2021/05/10 08:01:21;;;;;;;4.00;1.00;;;;;;;13.73;78.93;98222.59;5062988;28;20079;-47
2021/05/10 08:03:50;;;;;;;2.92;0.55;;;;;;;13.98;76.96;98220.09;5052986;28;20041;-48
2021/05/10 08:06:17;;;;;;;2.53;0.70;;;;;;;14.09;74.31;98222.66;5049598;28;20395;-50
2021/05/10 08:08:44;;;;;;;4.03;1.20;;;;;;;14.03;71.16;98225.16;5048217;28;20494;-48
2021/05/10 08:11:11;;;;;;;5.68;0.50;;;;;;;13.81;68.58;98224.03;5048436;28;20114;-48
2021/05/10 08:13:38;;;;;;;5.32;1.50;;;;;;;13.66;67.96;98222.72;5049833;28;20418;-47
2021/05/10 08:16:05;;;;;;;5.90;0.47;;;;;;;13.56;67.32;98234.84;5051649;28;20519;-46
2021/05/10 08:18:32;;;;;;;3.08;0.52;;;;;;;13.53;67.07;98246.81;5053961;28;20048;-48
2021/05/10 08:20:59;;;;;;;4.55;1.15;;;;;;;13.51;66.66;98242.88;5052550;28;20140;-45
2021/05/10 08:23:25;;;;;;;5.20;0.82;;;;;;;13.48;66.56;98241.75;5052166;28;20049;-46
2021/05/10 08:25:53;;;;;;;6.28;1.25;;;;;;;13.50;66.43;98235.78;5049383;28;20410;-50
2021/05/10 08:28:20;;;;;;;0.88;0.30;;;;;;;13.50;66.42;98242.13;5051241;28;20127;-47
2021/05/10 08:30:47;;;;;;;1.52;0.85;;;;;;;13.50;66.72;98241.34;5052354;28;20494;-44
2021/05/10 08:33:14;;;;;;;2.20;0.35;;;;;;;13.45;67.16;98239.81;5042297;28;20552;-47
2021/05/10 08:35:41;;;;;;;4.20;0.57;;;;;;;13.35;67.44;98244.38;5051240;28;20525;-46
2021/05/10 08:38:08;;;;;;;1.55;0.35;;;;;;;13.33;67.51;98246.78;5049424;28;20460;-51
2021/05/10 08:40:34;;;;;;;1.35;0.30;;;;;;;13.30;67.52;98238.50;5048817;28;20041;-49
2021/05/10 08:43:01;;;;;;;2.78;0.60;;;;;;;13.29;67.67;98239.72;5047485;28;20059;-48
2021/05/10 08:45:30;;;;;;;1.48;0.50;;;;;;;13.34;67.84;98233.69;5051304;28;20406;-50
2021/05/10 08:48:00;;;;;;;6.78;1.20;;;;;;;13.36;67.99;98242.38;5051269;28;20136;-47
2021/05/10 08:50:28;;;;;;;1.30;0.43;;;;;;;13.37;68.14;98233.59;5051109;28;20052;-49
2021/05/10 08:52:54;;;;;;;3.47;0.75;;;;;;;13.42;68.04;98238.66;5050633;28;20056;-46
2021/05/10 08:55:21;;;;;;;2.17;0.70;;;;;;;13.56;67.92;98236.84;5050960;28;20561;-47
2021/05/10 08:57:51;;;;;;;2.05;0.60;;;;;;;13.63;68.01;98231.94;5052342;28;20045;-46
2021/05/10 09:00:18;;;;;;;3.83;0.80;;;;;;;13.79;67.73;98225.69;5051136;28;20049;-48
2021/05/10 09:02:45;;;;;;;5.00;0.50;;;;;;;13.83;67.32;98223.59;5050897;28;20045;-45
2021/05/10 09:05:20;;;;;;;3.72;0.82;;;;;;;13.87;66.57;98232.66;5052017;28;20386;-48
2021/05/10 09:08:07;;;;;;;2.22;0.55;;;;;;;13.82;65.90;98230.38;5050844;28;20102;-51
2021/05/10 09:10:33;;;;;;;2.95;0.80;;;;;;;13.94;66.83;98246.44;5050660;28;20033;-52
2021/05/10 09:13:00;;;;;;;2.38;0.30;;;;;;;14.51;66.72;98232.09;5050842;28;20143;-46
2021/05/10 09:15:35;;;;;;;3.35;0.35;;;;;;;14.91;66.31;98244.69;5051579;28;20049;-51
2021/05/10 09:18:09;;;;;;;4.28;0.50;;;;;;;14.79;65.17;98244.59;5050872;28;20057;-46
2021/05/10 09:20:47;;;;;;;2.33;0.30;;;;;;;14.63;65.09;98235.00;5035285;28;20496;-45
2021/05/10 09:23:14;;;;;;;2.25;0.50;;;;;;;14.48;64.68;98244.88;5051662;28;20138;-48
2021/05/10 09:25:45;;;;;;;2.83;0.65;;;;;;;14.39;63.85;98239.13;5049636;28;20040;-46
2021/05/10 09:28:16;;;;;;;5.72;0.85;;;;;;;14.35;64.26;98234.88;5051112;28;20059;-48
2021/05/10 09:30:45;;;;;;;3.83;0.70;;;;;;;14.31;64.31;98228.56;5051774;28;20045;-47
2021/05/10 09:33:23;;;;;;;2.72;0.50;;;;;;;14.42;64.22;98235.50;5049743;28;20466;-48
2021/05/10 09:35:56;;;;;;;4.10;0.45;;;;;;;14.49;64.59;98234.53;5051098;28;20525;-48
2021/05/10 09:38:24;;;;;;;2.88;0.70;;;;;;;14.73;64.62;98235.97;5050741;28;20049;-50
2021/05/10 09:40:59;;;;;;;5.93;1.90;;;;;;;15.36;64.46;98241.19;5050685;28;20068;-51
2021/05/10 09:43:27;;;;;;;4.25;1.05;;;;;;;15.87;63.91;98242.22;5056355;28;20490;-47
2021/05/10 09:46:00;;;;;;;3.85;0.90;;;;;;;15.80;62.22;98227.28;5033024;28;20057;-49
2021/05/10 09:48:33;;;;;;;9.05;2.95;;;;;;;15.99;62.59;98228.31;5049592;28;20053;-47
2021/05/10 09:51:03;;;;;;;4.25;1.20;;;;;;;16.73;62.39;98225.34;5050016;28;20037;-50
2021/05/10 09:53:42;;;;;;;3.83;0.95;;;;;;;17.43;61.31;98228.56;5050582;28;20048;-51
2021/05/10 09:56:19;;;;;;;4.05;1.05;;;;;;;17.86;59.47;98229.91;5049203;28;20048;-49
2021/05/10 09:58:49;;;;;;;7.90;1.75;;;;;;;17.41;58.95;98224.66;5048922;28;20044;-50
2021/05/10 10:01:19;;;;;;;3.60;0.95;;;;;;;17.12;58.99;98240.84;5048235;28;20045;-49
2021/05/10 10:03:51;;;;;;;5.20;1.38;;;;;;;16.72;57.69;98232.94;5049605;28;20506;-50
2021/05/10 10:06:19;;;;;;;3.78;0.80;;;;;;;16.53;58.57;98228.34;5027751;28;20674;-46
2021/05/10 10:08:49;;;;;;;7.13;1.52;;;;;;;16.23;58.12;98226.06;5053083;28;20154;-48
2021/05/10 10:11:22;;;;;;;4.85;0.88;;;;;;;15.84;57.96;98227.94;5049361;28;20550;-47
2021/05/10 10:13:50;;;;;;;1.63;0.63;;;;;;;15.51;59.29;98231.28;5050521;28;20044;-52
2021/05/10 10:16:20;;;;;;;3.15;0.73;;;;;;;15.18;60.17;98230.50;5049813;28;20056;-46
2021/05/10 10:18:48;;;;;;;7.53;1.40;;;;;;;15.04;60.71;98225.25;5049657;28;20055;-48
2021/05/10 10:21:16;;;;;;;4.47;1.40;;;;;;;14.98;60.86;98238.97;5050622;28;20079;-47
2021/05/10 10:23:54;;;;;;;7.22;2.28;;;;;;;15.02;61.47;98234.06;5050105;28;20048;-51
2021/05/10 10:26:40;;;;;;;1.63;0.50;;;;;;;15.09;61.01;98225.53;5050123;28;20048;-49
2021/05/10 10:29:12;;;;;;;2.60;1.23;;;;;;;15.10;61.10;98226.31;5050274;28;20581;-48
2021/05/10 10:31:46;;;;;;;2.30;0.82;;;;;;;15.10;61.27;98229.09;5049180;28;20044;-47
2021/05/10 10:34:26;;;;;;;4.18;0.43;;;;;;;14.98;61.13;98233.38;5057209;28;20068;-49
2021/05/10 10:36:58;;;;;;;2.70;0.65;;;;;;;14.95;61.57;98245.41;5050529;28;20037;-46
2021/05/10 10:39:30;;;;;;;0.38;0.30;;;;;;;14.90;61.35;98237.56;5049027;28;20091;-50
2021/05/10 10:42:11;;;;;;;1.33;0.15;;;;;;;14.98;61.47;98233.38;5049918;28;20045;-50
2021/05/10 10:44:42;;;;;;;3.13;1.38;;;;;;;14.97;61.46;98237.38;5043179;28;20045;-50
2021/05/10 10:47:45;;;;;;;4.85;0.57;;;;;;;14.95;61.43;98245.41;5049882;28;20048;-46
2021/05/10 10:50:14;;;;;;;0.60;0.20;;;;;;;14.97;61.87;98237.38;5040058;28;20053;-49
2021/05/10 10:52:56;;;;;;;0.65;0.28;;;;;;;15.29;61.70;98239.38;5031366;28;20555;-52
2021/05/10 10:55:27;;;;;;;1.92;0.75;;;;;;;15.65;61.37;98242.03;5031154;28;20045;-48
2021/05/10 10:58:18;;;;;;;4.10;1.30;;;;;;;15.65;61.21;98242.03;5048440;28;20490;-49
2021/05/10 11:00:59;;;;;;;2.55;0.30;;;;;;;15.57;60.92;98246.22;5048013;28;20049;-50
2021/05/10 11:03:27;;;;;;;1.50;0.30;;;;;;;15.56;60.99;98245.47;5049434;28;20041;-48
2021/05/10 11:05:55;;;;;;;1.83;0.30;;;;;;;15.52;60.31;98247.56;5049147;28;20044;-48
2021/05/10 11:08:52;;;;;;;1.13;0.30;;;;;;;15.58;60.57;98251.38;5048729;28;20103;-50
2021/05/10 11:11:32;;;;;;;5.03;0.40;;;;;;;15.84;59.78;98255.84;5027999;28;20156;-47
2021/05/10 11:13:59;;;;;;;2.05;0.30;;;;;;;16.01;59.92;98245.41;5048095;28;20087;-47
2021/05/10 11:16:46;;;;;;;1.90;0.35;;;;;;;16.13;58.79;98250.25;5049625;28;20080;-49
2021/05/10 11:19:32;;;;;;;1.90;0.40;;;;;;;16.05;58.15;98243.28;5048449;28;20044;-46
2021/05/10 11:22:01;;;;;;;2.20;0.50;;;;;;;15.82;58.80;98247.13;5049020;28;20051;-47
2021/05/10 11:24:30;;;;;;;2.63;0.32;;;;;;;15.58;59.71;98256.16;5047024;28;20047;-47
2021/05/10 11:27:00;;;;;;;1.23;0.28;;;;;;;15.51;60.59;98253.56;5048110;28;20053;-48
2021/05/10 11:29:27;;;;;;;4.03;0.85;;;;;;;15.63;61.30;98250.84;5041867;28;20448;-49
2021/05/10 11:31:57;;;;;;;2.22;0.40;;;;;;;15.68;61.07;98257.88;5048215;28;20072;-47
2021/05/10 11:34:30;;;;;;;3.35;1.15;;;;;;;15.76;60.98;98259.25;5048570;28;20098;-50
2021/05/10 11:36:59;;;;;;;1.35;0.20;;;;;;;16.01;60.75;98258.59;5048933;28;20040;-45
2021/05/10 11:39:27;;;;;;;0.85;0.20;;;;;;;16.29;60.43;98269.72;5030469;28;20033;-47
2021/05/10 11:41:57;;;;;;;1.83;0.40;;;;;;;16.38;60.47;98260.69;5048993;28;20455;-48
2021/05/10 11:44:28;;;;;;;2.30;0.50;;;;;;;16.54;60.41;98262.63;5048815;28;20394;-49
2021/05/10 11:46:56;;;;;;;1.13;0.47;;;;;;;16.74;60.22;98269.59;5049506;28;20037;-48
2021/05/10 11:49:29;;;;;;;0.38;0.30;;;;;;;16.91;58.85;98271.06;5047821;28;20136;-49